createdAt,value
2023-03-20T00:00:32.719Z,101427.19
2023-03-20T00:02:59.724Z,101418.56
2023-03-20T00:05:28.578Z,101419.00
2023-03-20T00:07:55.632Z,101414.81
2023-03-20T00:10:22.828Z,101399.31
2023-03-20T00:12:50.293Z,101402.78
2023-03-20T00:15:36.902Z,101405.41
2023-03-20T00:18:04.054Z,101395.84
2023-03-20T00:20:31.762Z,101398.19
2023-03-20T00:22:58.701Z,101401.66
2023-03-20T00:25:25.948Z,101408.44
2023-03-20T00:27:52.985Z,101409.41
2023-03-20T00:30:46.266Z,101411.22
2023-03-20T00:33:13.045Z,101414.00
2023-03-20T00:35:39.940Z,101417.31
2023-03-20T00:38:06.591Z,101410.13
2023-03-20T00:40:34.484Z,101418.56
2023-03-20T00:43:02.521Z,101423.69
2023-03-20T00:45:30.611Z,101415.13
2023-03-20T00:48:00.933Z,101406.09
2023-03-20T00:50:30.328Z,101406.78
2023-03-20T00:52:58.248Z,101417.31
2023-03-20T00:55:26.902Z,101411.53
2023-03-20T00:57:53.549Z,101418.44
2023-03-20T01:00:22.487Z,101418.44
2023-03-20T01:02:49.539Z,101408.19
2023-03-20T01:05:16.266Z,101408.19
2023-03-20T01:07:42.995Z,101412.75
2023-03-20T01:10:11.796Z,101410.28
2023-03-20T01:12:39.497Z,101407.66
2023-03-20T01:15:11.876Z,101414.44
2023-03-20T01:17:38.520Z,101406.53
2023-03-20T01:20:07.381Z,101399.44
2023-03-20T01:22:34.103Z,101402.91
2023-03-20T01:25:01.202Z,101403.34
2023-03-20T01:27:27.884Z,101406.13
2023-03-20T01:29:54.682Z,101397.38
2023-03-20T01:32:21.586Z,101397.38
2023-03-20T01:34:48.479Z,101394.75
2023-03-20T01:37:18.642Z,101405.59
2023-03-20T01:39:45.468Z,101399.34
2023-03-20T01:42:15.197Z,101396.84
2023-03-20T01:44:41.988Z,101392.72
2023-03-20T01:47:27.967Z,101392.72
2023-03-20T01:50:13.445Z,101395.75
2023-03-20T01:52:40.269Z,101396.41
2023-03-20T01:55:07.024Z,101386.84
2023-03-20T01:57:33.704Z,101382.72
2023-03-20T02:00:00.377Z,101381.03
2023-03-20T02:02:36.365Z,101380.34
2023-03-20T02:05:07.119Z,101384.50
2023-03-20T02:07:34.819Z,101381.75
2023-03-20T02:10:02.857Z,101379.63
2023-03-20T02:12:35.966Z,101381.44
2023-03-20T02:15:04.242Z,101377.00
2023-03-20T02:17:31.199Z,101361.19
2023-03-20T02:20:00.936Z,101367.16
2023-03-20T02:22:43.006Z,101359.25
2023-03-20T02:25:15.768Z,101358.56
2023-03-20T02:28:05.544Z,101354.25
2023-03-20T02:30:38.342Z,101344.69
2023-03-20T02:33:22.903Z,101343.84
2023-03-20T02:36:04.083Z,101343.72
2023-03-20T02:38:49.280Z,101334.75
2023-03-20T02:41:23.915Z,101315.75
2023-03-20T02:44:00.323Z,101326.44
2023-03-20T02:46:32.871Z,101322.16
2023-03-20T02:49:38.264Z,101326.44
2023-03-20T02:52:23.647Z,101308.81
2023-03-20T02:54:50.290Z,101301.22
2023-03-20T02:57:17.041Z,101300.38
2023-03-20T02:59:46.655Z,101306.63
2023-03-20T03:02:16.870Z,101308.28
2023-03-20T03:04:55.229Z,101312.72
2023-03-20T03:07:24.740Z,101312.59
2023-03-20T03:09:54.208Z,101300.25
2023-03-20T03:12:25.886Z,101303.13
2023-03-20T03:14:59.322Z,101298.66
2023-03-20T03:17:27.923Z,101297.16
2023-03-20T03:19:58.271Z,101299.78
2023-03-20T03:22:25.612Z,101292.59
2023-03-20T03:24:53.117Z,101290.91
2023-03-20T03:27:32.034Z,101294.09
2023-03-20T03:30:04.946Z,101293.78
2023-03-20T03:32:36.359Z,101292.97
2023-03-20T03:35:05.746Z,101287.84
2023-03-20T03:37:44.840Z,101290.75
2023-03-20T03:40:14.607Z,101280.38
2023-03-20T03:42:53.274Z,101282.63
2023-03-20T03:45:25.853Z,101282.75
2023-03-20T03:47:56.132Z,101280.13
2023-03-20T03:50:31.838Z,101281.09
2023-03-20T03:53:00.087Z,101280.13
2023-03-20T03:55:28.250Z,101276.38
2023-03-20T03:58:00.584Z,101278.84
2023-03-20T04:00:28.179Z,101276.22
2023-03-20T04:02:56.245Z,101276.38
2023-03-20T04:05:24.573Z,101274.56
2023-03-20T04:07:54.347Z,101275.25
2023-03-20T04:10:21.142Z,101279.41
2023-03-20T04:12:47.838Z,101275.78
2023-03-20T04:15:16.097Z,101271.50
2023-03-20T04:17:43.255Z,101264.84
2023-03-20T04:20:10.711Z,101261.09
2023-03-20T04:22:37.374Z,101263.59
2023-03-20T04:25:05.141Z,101261.75
2023-03-20T04:27:31.929Z,101268.31
2023-03-20T04:29:58.715Z,101263.50
2023-03-20T04:32:27.169Z,101266.97
2023-03-20T04:34:53.807Z,101266.97
2023-03-20T04:37:20.659Z,101272.91
2023-03-20T04:39:47.853Z,101275.56
2023-03-20T04:42:14.537Z,101279.16
2023-03-20T04:44:41.265Z,101269.59
2023-03-20T04:47:07.989Z,101272.22
2023-03-20T04:49:34.699Z,101273.19
2023-03-20T04:52:01.354Z,101269.59
2023-03-20T04:54:27.985Z,101266.44
2023-03-20T04:56:54.667Z,101264.78
2023-03-20T04:59:21.337Z,101251.28
2023-03-20T05:01:47.986Z,101254.91
2023-03-20T05:04:14.898Z,101251.47
2023-03-20T05:06:41.886Z,101243.09
2023-03-20T05:09:08.575Z,101243.94
2023-03-20T05:11:35.238Z,101244.31
2023-03-20T05:14:01.995Z,101252.06
2023-03-20T05:16:29.045Z,101245.28
2023-03-20T05:18:56.018Z,101241.13
2023-03-20T05:21:22.629Z,101245.56
2023-03-20T05:23:49.324Z,101247.22
2023-03-20T05:26:16.177Z,101251.53
2023-03-20T05:28:42.895Z,101250.69
2023-03-20T05:31:09.711Z,101249.88
2023-03-20T05:33:38.273Z,101250.69
2023-03-20T05:36:06.195Z,101246.13
2023-03-20T05:38:33.050Z,101248.75
2023-03-20T05:41:00.652Z,101241.69
2023-03-20T05:43:29.224Z,101237.38
2023-03-20T05:45:58.751Z,101229.94
2023-03-20T05:48:25.499Z,101235.19
2023-03-20T05:50:52.179Z,101239.34
2023-03-20T05:53:18.862Z,101238.22
2023-03-20T05:55:45.698Z,101237.06
2023-03-20T05:58:12.967Z,101233.34
2023-03-20T06:00:39.870Z,101237.78
2023-03-20T06:03:09.522Z,101240.94
2023-03-20T06:05:36.946Z,101240.66
2023-03-20T06:08:04.522Z,101240.34
2023-03-20T06:10:31.533Z,101231.97
2023-03-20T06:13:01.183Z,101238.91
2023-03-20T06:15:28.870Z,101238.09
2023-03-20T06:17:56.438Z,101238.41
2023-03-20T06:20:23.853Z,101235.75
2023-03-20T06:22:50.593Z,101238.09
2023-03-20T06:25:17.965Z,101239.06
2023-03-20T06:27:46.268Z,101239.88
2023-03-20T06:30:13.225Z,101252.38
2023-03-20T06:32:40.533Z,101248.63
2023-03-20T06:35:07.806Z,101255.56
2023-03-20T06:37:34.617Z,101260.97
2023-03-20T06:40:01.299Z,101264.31
2023-03-20T06:42:27.962Z,101259.16
2023-03-20T06:44:54.730Z,101261.81
2023-03-20T06:47:21.358Z,101251.25
2023-03-20T06:49:48.481Z,101259.16
2023-03-20T06:52:19.491Z,101259.16
2023-03-20T06:54:46.192Z,101255.56
2023-03-20T06:57:15.182Z,101260.97
2023-03-20T06:59:42.026Z,101260.69
2023-03-20T07:02:10.256Z,101252.47
2023-03-20T07:04:37.469Z,101269.13
2023-03-20T07:07:04.565Z,101258.59
2023-03-20T07:09:31.294Z,101261.63
2023-03-20T07:11:57.987Z,101253.13
2023-03-20T07:14:24.696Z,101250.31
2023-03-20T07:16:51.404Z,101250.19
2023-03-20T07:19:18.861Z,101251.97
2023-03-20T07:21:55.080Z,101258.22
2023-03-20T07:24:22.319Z,101254.63
2023-03-20T07:26:48.996Z,101253.50
2023-03-20T07:29:15.751Z,101256.28
2023-03-20T07:31:48.440Z,101237.81
2023-03-20T07:34:15.191Z,101244.44
2023-03-20T07:36:45.003Z,101249.25
2023-03-20T07:39:13.531Z,101241.06
2023-03-20T07:41:48.014Z,101242.41
2023-03-20T07:44:14.787Z,101241.66
2023-03-20T07:46:41.413Z,101239.84
2023-03-20T07:49:08.156Z,101240.66
2023-03-20T07:51:34.826Z,101247.28
2023-03-20T07:54:01.530Z,101242.69
2023-03-20T07:56:28.273Z,101241.88
2023-03-20T07:58:54.893Z,101237.28
2023-03-20T08:01:21.712Z,101244.88
2023-03-20T08:03:48.599Z,101248.22
2023-03-20T08:06:15.456Z,101252.84
2023-03-20T08:08:42.379Z,101249.91
2023-03-20T08:11:09.046Z,101249.97
2023-03-20T08:13:35.699Z,101252.13
2023-03-20T08:16:02.531Z,101252.81
2023-03-20T08:18:29.265Z,101250.53
2023-03-20T08:20:56.232Z,101251.06
2023-03-20T08:23:22.887Z,101252.56
2023-03-20T08:25:50.180Z,101247.94
2023-03-20T08:28:17.208Z,101242.53
2023-03-20T08:30:44.351Z,101243.22
2023-03-20T08:33:11.506Z,101239.88
2023-03-20T08:35:38.509Z,101242.84
2023-03-20T08:38:05.517Z,101244.81
2023-03-20T08:40:32.712Z,101243.22
2023-03-20T08:43:01.549Z,101248.84
2023-03-20T08:45:28.192Z,101244.22
2023-03-20T08:47:55.405Z,101248.66
2023-03-20T08:50:22.082Z,101238.31
2023-03-20T08:52:48.884Z,101241.00
2023-03-20T08:55:16.447Z,101240.56
2023-03-20T08:57:43.584Z,101249.97
2023-03-20T09:00:13.119Z,101245.34
2023-03-20T09:02:40.360Z,101248.16
2023-03-20T09:05:07.629Z,101248.81
2023-03-20T09:07:34.540Z,101244.38
2023-03-20T09:10:01.363Z,101243.06
2023-03-20T09:12:28.427Z,101245.88
2023-03-20T09:14:55.374Z,101247.78
2023-03-20T09:17:22.024Z,101263.47
2023-03-20T09:19:48.751Z,101261.50
2023-03-20T09:22:15.876Z,101267.31
2023-03-20T09:24:42.489Z,101268.31
2023-03-20T09:27:09.334Z,101258.75
2023-03-20T09:29:36.350Z,101255.84
2023-03-20T09:32:03.074Z,101255.50
2023-03-20T09:34:29.787Z,101262.09
2023-03-20T09:36:56.553Z,101259.97
2023-03-20T09:39:23.398Z,101258.34
2023-03-20T09:41:57.783Z,101254.53
2023-03-20T09:44:39.218Z,101259.66
2023-03-20T09:47:24.553Z,101250.75
2023-03-20T09:50:01.403Z,101257.66
2023-03-20T09:52:32.797Z,101257.66
2023-03-20T09:55:17.120Z,101252.22
2023-03-20T09:57:46.912Z,101264.31
2023-03-20T10:00:14.074Z,101261.31
2023-03-20T10:02:46.855Z,101259.19
2023-03-20T10:05:32.502Z,101255.25
2023-03-20T10:08:00.726Z,101264.66
2023-03-20T10:10:32.162Z,101257.88
2023-03-20T10:13:08.900Z,101254.25
2023-03-20T10:15:47.242Z,101257.72
2023-03-20T10:18:23.080Z,101256.72
2023-03-20T10:21:07.688Z,101256.41
2023-03-20T10:23:37.722Z,101260.53
2023-03-20T10:26:11.672Z,101261.06
2023-03-20T10:28:57.704Z,101265.84
2023-03-20T10:31:47.277Z,101256.41
2023-03-20T10:34:15.162Z,101254.09
2023-03-20T10:36:54.107Z,101251.28
2023-03-20T10:39:27.324Z,101251.63
2023-03-20T10:41:56.621Z,101248.81
2023-03-20T10:44:39.357Z,101244.03
2023-03-20T10:47:07.868Z,101246.81
2023-03-20T10:49:37.608Z,101256.41
2023-03-20T10:52:06.594Z,101244.84
2023-03-20T10:54:39.989Z,101247.00
2023-03-20T10:57:10.624Z,101253.28
2023-03-20T10:59:39.475Z,101251.63
2023-03-20T11:02:10.372Z,101247.34
2023-03-20T11:04:37.291Z,101250.28
2023-03-20T11:07:13.063Z,101251.47
2023-03-20T11:09:41.259Z,101253.94
2023-03-20T11:12:14.898Z,101259.75
2023-03-20T11:14:41.549Z,101243.84
2023-03-20T11:17:08.428Z,101249.78
2023-03-20T11:19:36.964Z,101255.09
2023-03-20T11:22:22.916Z,101249.97
2023-03-20T11:25:04.284Z,101253.28
2023-03-20T11:27:32.379Z,101236.72
2023-03-20T11:30:01.000Z,101241.38
2023-03-20T11:32:27.877Z,101244.34
2023-03-20T11:34:57.930Z,101241.69
2023-03-20T11:37:26.503Z,101237.56
2023-03-20T11:39:53.760Z,101239.06
2023-03-20T11:42:24.869Z,101245.34
2023-03-20T11:45:18.113Z,101242.84
2023-03-20T11:47:49.156Z,101241.19
2023-03-20T11:50:28.196Z,101246.16
2023-03-20T11:52:54.999Z,101244.81
2023-03-20T11:55:35.751Z,101243.97
2023-03-20T11:58:05.091Z,101242.88
2023-03-20T12:00:39.829Z,101247.97
2023-03-20T12:03:27.347Z,101241.34
2023-03-20T12:06:00.113Z,101243.31
2023-03-20T12:08:27.846Z,101240.19
2023-03-20T12:10:59.457Z,101243.63
2023-03-20T12:13:38.192Z,101237.00
2023-03-20T12:16:07.235Z,101234.66
2023-03-20T12:18:40.482Z,101232.69
2023-03-20T12:21:12.997Z,101233.34
2023-03-20T12:23:39.577Z,101231.69
2023-03-20T12:26:28.899Z,101232.00
2023-03-20T12:29:17.228Z,101224.88
2023-03-20T12:31:51.403Z,101229.56
2023-03-20T12:34:22.392Z,101228.25
2023-03-20T12:36:50.036Z,101234.69
2023-03-20T12:39:24.036Z,101225.41
2023-03-20T12:42:07.316Z,101232.88
2023-03-20T12:44:57.539Z,101229.56
2023-03-20T12:47:48.270Z,101230.56
2023-03-20T12:50:15.155Z,101219.97
2023-03-20T12:52:51.866Z,101218.13
2023-03-20T12:55:26.442Z,101219.13
2023-03-20T12:58:07.720Z,101215.94
2023-03-20T13:00:38.743Z,101208.84
2023-03-20T13:03:11.182Z,101209.66
2023-03-20T13:05:41.564Z,101210.66
2023-03-20T13:08:11.662Z,101202.88
2023-03-20T13:11:04.100Z,101204.88
2023-03-20T13:13:40.545Z,101200.41
2023-03-20T13:16:11.215Z,101204.06
2023-03-20T13:18:51.872Z,101196.94
2023-03-20T13:21:32.543Z,101196.56
2023-03-20T13:24:05.534Z,101197.41
2023-03-20T13:26:40.625Z,101191.94
2023-03-20T13:29:18.295Z,101190.75
2023-03-20T13:31:51.295Z,101186.13
2023-03-20T13:34:23.798Z,101194.75
2023-03-20T13:36:56.084Z,101183.44
2023-03-20T13:39:28.658Z,101186.75
2023-03-20T13:42:00.028Z,101175.31
2023-03-20T13:44:33.540Z,101176.31
2023-03-20T13:47:11.765Z,101180.63
2023-03-20T13:49:44.792Z,101172.00
2023-03-20T13:52:14.089Z,101176.81
2023-03-20T13:54:58.546Z,101180.97
2023-03-20T13:57:32.310Z,101180.63
2023-03-20T14:00:04.311Z,101172.66
2023-03-20T14:02:43.270Z,101169.66
2023-03-20T14:05:17.204Z,101163.72
2023-03-20T14:07:50.040Z,101163.06
2023-03-20T14:10:24.807Z,101163.75
2023-03-20T14:13:01.779Z,101159.16
2023-03-20T14:15:45.276Z,101162.78
2023-03-20T14:18:22.880Z,101163.63
2023-03-20T14:20:52.812Z,101165.09
2023-03-20T14:23:21.437Z,101166.59
2023-03-20T14:25:49.657Z,101163.94
2023-03-20T14:28:17.135Z,101167.41
2023-03-20T14:30:46.266Z,101166.59
2023-03-20T14:33:13.662Z,101168.25
2023-03-20T14:35:43.985Z,101168.25
2023-03-20T14:38:13.977Z,101161.09
2023-03-20T14:40:47.829Z,101157.63
2023-03-20T14:43:20.054Z,101158.63
2023-03-20T14:45:52.777Z,101154.03
2023-03-20T14:48:21.330Z,101162.66
2023-03-20T14:50:48.877Z,101157.19
2023-03-20T14:53:16.521Z,101154.06
2023-03-20T14:55:46.559Z,101152.41
2023-03-20T14:58:16.581Z,101156.56
2023-03-20T15:00:46.282Z,101157.09
2023-03-20T15:03:15.917Z,101147.13
2023-03-20T15:05:42.936Z,101154.59
2023-03-20T15:08:11.834Z,101148.31
2023-03-20T15:10:45.985Z,101150.59
2023-03-20T15:13:14.256Z,101139.16
2023-03-20T15:15:52.337Z,101139.81
2023-03-20T15:18:21.412Z,101148.06
2023-03-20T15:20:49.060Z,101148.56
2023-03-20T15:23:16.113Z,101139.31
2023-03-20T15:25:44.876Z,101143.97
2023-03-20T15:28:16.275Z,101145.16
2023-03-20T15:30:46.235Z,101135.22
2023-03-20T15:33:17.170Z,101135.22
2023-03-20T15:35:44.171Z,101134.75
2023-03-20T15:38:14.082Z,101136.25
2023-03-20T15:40:50.662Z,101128.16
2023-03-20T15:43:20.338Z,101135.28
2023-03-20T15:45:47.540Z,101137.94
2023-03-20T15:48:16.024Z,101134.13
2023-03-20T15:50:46.399Z,101133.13
2023-03-20T15:53:16.679Z,101131.66
2023-03-20T15:55:47.624Z,101139.75
2023-03-20T15:58:14.710Z,101132.66
2023-03-20T16:00:44.795Z,101127.38
2023-03-20T16:03:13.854Z,101126.69
2023-03-20T16:05:43.161Z,101137.31
2023-03-20T16:08:13.411Z,101131.00
2023-03-20T16:10:44.492Z,101125.53
2023-03-20T16:13:17.735Z,101120.44
2023-03-20T16:15:48.041Z,101127.06
2023-03-20T16:18:19.113Z,101132.34
2023-03-20T16:20:58.377Z,101134.66
2023-03-20T16:23:35.768Z,101127.06
2023-03-20T16:26:05.190Z,101127.72
2023-03-20T16:28:32.320Z,101131.19
2023-03-20T16:31:09.211Z,101121.44
2023-03-20T16:33:48.949Z,101123.75
2023-03-20T16:36:21.014Z,101118.97
2023-03-20T16:38:53.974Z,101120.78
2023-03-20T16:41:32.165Z,101124.75
2023-03-20T16:44:03.852Z,101118.13
2023-03-20T16:46:35.063Z,101120.63
2023-03-20T16:49:07.810Z,101126.38
2023-03-20T16:51:37.944Z,101126.38
2023-03-20T16:54:20.816Z,101114.19
2023-03-20T16:56:57.332Z,101124.91
2023-03-20T16:59:28.776Z,101115.69
2023-03-20T17:02:01.809Z,101126.56
2023-03-20T17:04:34.384Z,101114.69
2023-03-20T17:07:06.598Z,101119.16
2023-03-20T17:09:33.799Z,101126.75
2023-03-20T17:12:03.893Z,101123.63
2023-03-20T17:14:31.198Z,101121.00
2023-03-20T17:16:58.290Z,101118.69
2023-03-20T17:19:25.463Z,101121.50
2023-03-20T17:21:54.205Z,101116.34
2023-03-20T17:24:21.154Z,101120.00
2023-03-20T17:26:52.572Z,101113.72
2023-03-20T17:29:19.641Z,101116.88
2023-03-20T17:31:51.745Z,101122.16
2023-03-20T17:34:18.901Z,101119.50
2023-03-20T17:36:45.859Z,101122.31
2023-03-20T17:39:17.372Z,101124.63
2023-03-20T17:41:44.380Z,101124.97
2023-03-20T17:44:11.414Z,101120.81
2023-03-20T17:46:56.262Z,101135.22
2023-03-20T17:49:27.853Z,101133.56
2023-03-20T17:51:59.493Z,101131.09
2023-03-20T17:54:26.710Z,101126.63
2023-03-20T17:56:53.759Z,101132.25
2023-03-20T17:59:20.979Z,101129.63
2023-03-20T18:01:48.733Z,101122.47
2023-03-20T18:04:15.813Z,101125.13
2023-03-20T18:06:42.835Z,101130.41
2023-03-20T18:09:12.621Z,101126.28
2023-03-20T18:11:40.619Z,101125.47
2023-03-20T18:14:08.823Z,101127.94
2023-03-20T18:16:36.265Z,101124.28
2023-03-20T18:19:04.110Z,101128.56
2023-03-20T18:21:31.156Z,101129.25
2023-03-20T18:23:58.095Z,101127.94
2023-03-20T18:26:26.550Z,101128.25
2023-03-20T18:28:54.798Z,101124.28
2023-03-20T18:31:22.294Z,101122.97
2023-03-20T18:33:50.610Z,101122.78
2023-03-20T18:36:19.316Z,101130.88
2023-03-20T18:38:46.518Z,101125.75
2023-03-20T18:41:13.969Z,101127.91
2023-03-20T18:43:41.345Z,101133.00
2023-03-20T18:46:13.554Z,101123.59
2023-03-20T18:48:41.610Z,101125.56
2023-03-20T18:51:08.977Z,101127.06
2023-03-20T18:53:36.340Z,101122.63
2023-03-20T18:56:03.350Z,101128.72
2023-03-20T18:58:30.966Z,101131.38
2023-03-20T19:00:59.956Z,101124.44
2023-03-20T19:03:28.873Z,101128.72
2023-03-20T19:05:57.859Z,101121.78
2023-03-20T19:08:24.965Z,101123.75
2023-03-20T19:10:51.975Z,101129.34
2023-03-20T19:13:20.623Z,101119.59
2023-03-20T19:15:49.151Z,101131.53
2023-03-20T19:18:18.060Z,101126.41
2023-03-20T19:20:46.246Z,101119.75
2023-03-20T19:23:14.374Z,101119.06
2023-03-20T19:25:42.538Z,101116.78
2023-03-20T19:28:21.649Z,101112.66
2023-03-20T19:30:50.842Z,101112.66
2023-03-20T19:33:17.889Z,101110.16
2023-03-20T19:36:01.690Z,101111.97
2023-03-20T19:38:31.884Z,101106.69
2023-03-20T19:41:00.178Z,101106.34
2023-03-20T19:43:28.941Z,101106.19
2023-03-20T19:45:58.829Z,101105.88
2023-03-20T19:48:50.367Z,101101.06
2023-03-20T19:51:19.573Z,101103.06
2023-03-20T19:53:47.497Z,101096.97
2023-03-20T19:56:16.012Z,101094.47
2023-03-20T19:58:43.391Z,101098.75
2023-03-20T20:01:15.912Z,101091.66
2023-03-20T20:03:43.110Z,101095.13
2023-03-20T20:06:10.363Z,101090.69
2023-03-20T20:08:47.885Z,101095.13
2023-03-20T20:11:16.198Z,101092.50
2023-03-20T20:14:04.225Z,101086.22
2023-03-20T20:16:30.829Z,101090.50
2023-03-20T20:18:58.053Z,101086.22
2023-03-20T20:24:15.611Z,101079.63
2023-03-20T20:26:53.362Z,101073.72
2023-03-20T20:29:22.111Z,101072.41
2023-03-20T20:31:49.883Z,101077.69
2023-03-20T20:39:51.517Z,101072.53
2023-03-20T20:42:18.988Z,101069.22
2023-03-20T20:44:46.377Z,101066.09
2023-03-20T20:47:14.419Z,101065.41
2023-03-20T20:49:43.855Z,101063.59
2023-03-20T20:52:10.958Z,101066.91
2023-03-20T20:54:38.211Z,101058.31
2023-03-20T20:57:05.913Z,101064.28
2023-03-20T20:59:33.077Z,101060.97
2023-03-20T21:02:00.391Z,101055.66
2023-03-20T21:04:27.580Z,101064.09
2023-03-20T21:07:11.371Z,101055.34
2023-03-20T21:09:38.782Z,101049.38
2023-03-20T21:12:06.217Z,101044.78
2023-03-20T21:14:33.589Z,101039.16
2023-03-20T21:17:01.741Z,101039.31
2023-03-20T21:19:29.479Z,101039.50
2023-03-20T21:21:57.841Z,101035.53
2023-03-20T21:24:34.501Z,101039.00
2023-03-20T21:27:03.702Z,101038.31
2023-03-20T21:29:31.028Z,101038.13
2023-03-20T21:31:58.078Z,101039.31
2023-03-20T21:34:25.141Z,101031.38
2023-03-20T21:36:52.794Z,101026.75
2023-03-20T21:39:19.943Z,101031.72
2023-03-20T21:41:47.621Z,101031.56
2023-03-20T21:44:21.835Z,101032.06
2023-03-20T21:50:38.361Z,101029.72
2023-03-20T21:56:20.596Z,101029.91
2023-03-20T21:59:02.864Z,101028.25
2023-03-20T22:04:31.829Z,101030.41
2023-03-20T22:10:03.469Z,101033.00
2023-03-20T22:15:29.510Z,101020.78
2023-03-20T22:18:12.374Z,101020.63
2023-03-20T22:24:01.695Z,101029.53
2023-03-20T22:26:56.581Z,101019.16
2023-03-20T22:35:03.048Z,101012.84
2023-03-20T22:40:50.333Z,101010.06
2023-03-20T22:43:26.467Z,100991.75
2023-03-20T22:45:38.204Z,101003.31
2023-03-20T22:48:11.565Z,100997.84
2023-03-20T22:50:39.462Z,100989.09
2023-03-20T22:53:06.562Z,100990.94
2023-03-20T22:55:33.734Z,100982.84
2023-03-20T22:58:07.424Z,100987.47
2023-03-20T23:00:36.332Z,100978.53
2023-03-20T23:03:17.530Z,100983.81
2023-03-20T23:05:50.263Z,100984.66
2023-03-20T23:08:17.929Z,100979.06
2023-03-20T23:10:46.251Z,100971.13
2023-03-20T23:13:13.761Z,100967.66
2023-03-20T23:15:40.771Z,100969.16
2023-03-20T23:18:08.028Z,100957.94
2023-03-20T23:20:35.203Z,100962.06
2023-03-20T23:23:02.355Z,100955.13
2023-03-20T23:25:38.801Z,100951.50
2023-03-20T23:28:07.014Z,100943.75
2023-03-20T23:30:44.183Z,100945.41
2023-03-20T23:33:15.041Z,100938.31
2023-03-20T23:35:42.213Z,100937.63
2023-03-20T23:38:09.260Z,100930.69
2023-03-20T23:40:36.869Z,100933.69
2023-03-20T23:43:04.319Z,100929.22
2023-03-20T23:45:31.339Z,100934.66
2023-03-20T23:47:58.487Z,100920.47
2023-03-20T23:50:34.009Z,100914.69
2023-03-20T23:53:17.617Z,100912.06
2023-03-20T23:55:47.973Z,100903.16
2023-03-20T23:58:15.891Z,100902.31
